Time;durP1;ratioP1;P1;durP2;ratioP2;P2;SDS_P1;SDS_P2;PMS_P1;PMS_P2;Temp;Humidity;BMP_temperature;BMP_pressure;BME280_temperature;BME280_humidity;BME280_pressure;Samples;Min_cycle;Max_cycle;Signal;HPM_P1;HPM_P2
2024/02/14 00:02:20;;;;;;;2.92;1.15;;;17.70;69.10;;;;;;6136450;23;20180;-87
2024/02/14 00:04:53;;;;;;;3.55;1.40;;;17.70;69.30;;;;;;6138111;23;20229;-88
2024/02/14 00:07:21;;;;;;;2.22;1.55;;;17.60;69.20;;;;;;6176952;22;20322;-89
2024/02/14 00:10:09;;;;;;;3.95;1.40;;;17.60;68.70;;;;;;6263360;22;20143;-90
2024/02/14 00:12:38;;;;;;;2.65;1.40;;;17.70;68.60;;;;;;6289124;22;20147;-90
2024/02/14 00:15:05;;;;;;;1.27;1.17;;;17.70;69.40;;;;;;6272764;22;20188;-90
2024/02/14 00:17:33;;;;;;;1.30;1.20;;;17.70;68.90;;;;;;6258360;22;20156;-89
2024/02/14 00:20:01;;;;;;;3.13;1.42;;;17.70;69.20;;;;;;6284168;22;20163;-88
2024/02/14 00:22:39;;;;;;;3.55;1.52;;;17.60;69.00;;;;;;6284170;22;20216;-89
2024/02/14 00:25:11;;;;;;;1.75;1.20;;;17.60;69.00;;;;;;6257782;22;20147;-89
2024/02/14 00:27:42;;;;;;;3.00;1.30;;;17.60;68.80;;;;;;6227115;22;20149;-87
2024/02/14 00:30:40;;;;;;;3.03;1.30;;;17.60;68.70;;;;;;6220930;23;20157;-89
2024/02/14 00:33:25;;;;;;;2.42;1.60;;;17.60;68.20;;;;;;6150266;23;20592;-87
2024/02/14 00:36:08;;;;;;;2.28;1.25;;;17.60;68.80;;;;;;6173656;23;20158;-90
2024/02/14 00:38:36;;;;;;;3.45;1.63;;;17.60;69.00;;;;;;6172499;23;20173;-88
2024/02/14 00:41:03;;;;;;;1.95;1.45;;;17.60;69.20;;;;;;6196782;23;20141;-88
2024/02/14 00:43:32;;;;;;;2.00;1.20;;;17.60;68.90;;;;;;6165365;23;20656;-88
2024/02/14 00:45:59;;;;;;;2.33;1.20;;;17.60;69.00;;;;;;6126056;23;20152;-88
2024/02/14 00:48:25;;;;;;;5.63;1.58;;;17.60;68.70;;;;;;6067857;23;20177;-87
2024/02/14 00:50:54;;;;;;;2.10;1.30;;;17.60;68.90;;;;;;6022022;23;20258;-87
2024/02/14 00:53:20;;;;;;;2.67;1.60;;;17.50;68.80;;;;;;6041123;23;20154;-86
2024/02/14 00:55:48;;;;;;;2.17;1.27;;;17.50;69.00;;;;;;6018019;23;20182;-91
2024/02/14 00:58:16;;;;;;;3.50;1.30;;;17.60;69.10;;;;;;6045966;23;20157;-87
2024/02/14 01:00:48;;;;;;;2.58;1.40;;;17.50;69.00;;;;;;6069853;23;20158;-88
2024/02/14 01:03:16;;;;;;;1.67;1.15;;;17.50;68.90;;;;;;6070034;23;20160;-88
2024/02/14 01:05:45;;;;;;;1.83;1.40;;;17.50;69.10;;;;;;6070875;23;20150;-87
2024/02/14 01:08:13;;;;;;;3.83;1.60;;;17.60;68.70;;;;;;6070292;23;20149;-88
2024/02/14 01:10:46;;;;;;;3.67;1.38;;;17.50;68.70;;;;;;6069617;23;20138;-87
2024/02/14 01:13:18;;;;;;;2.53;1.35;;;17.60;68.90;;;;;;6046248;23;20262;-88
2024/02/14 01:15:48;;;;;;;3.40;1.50;;;17.60;68.90;;;;;;6051959;23;20200;-88
2024/02/14 01:18:25;;;;;;;2.13;1.45;;;17.50;68.80;;;;;;6061875;23;20155;-88
2024/02/14 01:20:54;;;;;;;3.28;1.60;;;17.50;68.80;;;;;;6150174;23;20149;-87
2024/02/14 01:23:27;;;;;;;2.50;1.58;;;17.50;68.30;;;;;;6153353;22;20153;-87
2024/02/14 01:25:57;;;;;;;1.85;1.30;;;17.40;68.90;;;;;;6235107;22;20140;-87
2024/02/14 01:28:27;;;;;;;2.10;1.38;;;17.50;68.70;;;;;;6232162;22;20149;-87
2024/02/14 01:30:54;;;;;;;3.30;1.50;;;17.50;69.00;;;;;;6233094;22;20149;-87
2024/02/14 01:33:26;;;;;;;3.40;1.40;;;17.50;69.00;;;;;;6233554;22;20148;-87
2024/02/14 01:35:55;;;;;;;2.40;1.35;;;17.50;68.80;;;;;;6182636;22;20144;-88
2024/02/14 01:38:21;;;;;;;2.40;1.33;;;17.50;68.50;;;;;;6259398;22;20172;-86
2024/02/14 01:40:53;;;;;;;2.92;1.65;;;17.50;68.80;;;;;;6232616;22;20168;-88
2024/02/14 01:43:24;;;;;;;3.35;1.52;;;17.50;68.50;;;;;;6183508;22;20152;-87
2024/02/14 01:46:04;;;;;;;3.38;1.70;;;17.50;68.60;;;;;;6207663;22;20231;-89
2024/02/14 01:48:44;;;;;;;3.22;1.70;;;17.40;68.30;;;;;;6213348;22;20152;-87
2024/02/14 01:51:17;;;;;;;3.05;1.60;;;17.50;68.90;;;;;;6208654;22;20151;-87
2024/02/14 01:54:09;;;;;;;2.30;1.52;;;17.40;68.40;;;;;;6185983;22;20148;-87
2024/02/14 01:56:35;;;;;;;2.95;1.75;;;17.40;68.30;;;;;;6183943;22;20460;-87
2024/02/14 01:59:08;;;;;;;2.20;1.55;;;17.50;68.80;;;;;;6258957;22;20211;-87
2024/02/14 02:01:38;;;;;;;2.72;1.33;;;17.40;68.60;;;;;;6232817;22;20187;-87
2024/02/14 02:04:05;;;;;;;1.33;1.20;;;17.40;69.00;;;;;;6258644;22;20124;-87
2024/02/14 02:06:33;;;;;;;1.73;1.45;;;17.50;68.80;;;;;;6234119;22;20227;-87
2024/02/14 02:09:02;;;;;;;1.30;1.20;;;17.40;69.00;;;;;;6207437;22;20209;-88
2024/02/14 02:12:00;;;;;;;3.05;1.42;;;17.40;68.90;;;;;;6166282;23;20153;-87
2024/02/14 02:14:29;;;;;;;2.70;1.60;;;17.40;68.50;;;;;;6111371;23;20213;-88
2024/02/14 02:16:57;;;;;;;2.00;1.30;;;17.40;68.50;;;;;;6079403;23;20188;-88
2024/02/14 02:19:22;;;;;;;2.53;1.50;;;17.40;68.60;;;;;;6079719;23;20266;-87
2024/02/14 02:21:56;;;;;;;2.15;1.40;;;17.40;68.30;;;;;;6079331;23;20603;-88
2024/02/14 02:24:24;;;;;;;2.22;1.50;;;17.40;68.80;;;;;;6055113;23;20180;-87
2024/02/14 02:27:01;;;;;;;2.58;1.42;;;17.40;68.70;;;;;;6031088;23;20203;-87
2024/02/14 02:29:27;;;;;;;2.35;1.50;;;17.30;68.60;;;;;;6055428;23;20156;-88
2024/02/14 02:31:56;;;;;;;2.17;1.50;;;17.40;68.60;;;;;;6055613;23;20148;-87
2024/02/14 02:34:23;;;;;;;1.58;1.42;;;17.40;68.50;;;;;;6079588;23;20152;-88
2024/02/14 02:37:07;;;;;;;2.08;1.58;;;17.40;68.20;;;;;;6079350;23;20158;-88
2024/02/14 02:39:36;;;;;;;2.65;1.58;;;17.40;68.90;;;;;;6080176;23;20194;-88
2024/02/14 02:42:05;;;;;;;2.88;1.50;;;17.40;68.40;;;;;;6035250;23;20159;-89
2024/02/14 02:44:38;;;;;;;2.88;1.50;;;17.30;68.40;;;;;;6066678;23;20151;-86
2024/02/14 02:47:12;;;;;;;2.63;1.13;;;17.40;68.50;;;;;;6167201;23;20150;-88
2024/02/14 02:49:44;;;;;;;2.47;1.48;;;17.40;68.50;;;;;;6167178;23;20148;-87
2024/02/14 02:52:11;;;;;;;2.65;1.75;;;17.40;69.60;;;;;;6167131;23;20161;-88
2024/02/14 02:54:40;;;;;;;2.47;1.50;;;17.30;68.60;;;;;;6166729;23;20509;-87
2024/02/14 02:57:08;;;;;;;4.78;1.63;;;17.30;68.30;;;;;;6167783;23;20154;-88
2024/02/14 02:59:35;;;;;;;3.65;1.60;;;17.40;69.30;;;;;;6167097;23;20178;-88
2024/02/14 03:02:02;;;;;;;2.45;1.55;;;17.30;68.60;;;;;;6166827;23;20173;-87
2024/02/14 03:04:28;;;;;;;2.67;1.63;;;17.30;68.70;;;;;;6191799;23;20136;-87
2024/02/14 03:06:54;;;;;;;2.33;1.90;;;17.30;68.50;;;;;;6166508;23;20713;-88
2024/02/14 03:09:22;;;;;;;2.70;1.50;;;17.30;68.40;;;;;;6166603;23;20142;-88
2024/02/14 03:11:56;;;;;;;5.20;1.60;;;17.30;68.20;;;;;;6169192;22;20141;-88
2024/02/14 03:14:25;;;;;;;3.03;1.13;;;17.40;68.30;;;;;;6205056;23;20185;-87
2024/02/14 03:17:01;;;;;;;3.15;1.45;;;17.30;68.50;;;;;;6088243;23;20229;-88
2024/02/14 03:19:30;;;;;;;2.58;1.63;;;17.30;68.30;;;;;;6090241;23;20182;-88
2024/02/14 03:22:00;;;;;;;2.72;1.90;;;17.30;68.60;;;;;;6112949;23;20151;-89
2024/02/14 03:24:35;;;;;;;2.00;1.40;;;17.30;68.30;;;;;;6112420;23;20155;-89
2024/02/14 03:27:04;;;;;;;3.33;1.77;;;17.30;68.60;;;;;;6091482;23;20158;-89
2024/02/14 03:29:30;;;;;;;3.05;1.48;;;17.40;68.30;;;;;;6088863;23;20649;-88
2024/02/14 03:32:07;;;;;;;2.35;1.60;;;17.30;68.40;;;;;;6136942;23;20190;-88
2024/02/14 03:34:35;;;;;;;2.42;1.60;;;17.30;68.60;;;;;;6102250;23;20155;-87
2024/02/14 03:37:06;;;;;;;2.10;1.60;;;17.20;68.30;;;;;;6102486;23;20243;-89
2024/02/14 03:39:39;;;;;;;1.75;1.45;;;17.30;68.30;;;;;;6102814;23;20266;-88
2024/02/14 03:42:09;;;;;;;2.30;1.70;;;17.20;68.60;;;;;;6078469;23;20238;-87
2024/02/14 03:44:37;;;;;;;3.42;1.83;;;17.30;68.50;;;;;;6051635;23;20153;-89
2024/02/14 03:47:15;;;;;;;2.75;1.77;;;17.30;68.60;;;;;;6074229;23;20220;-87
2024/02/14 03:49:52;;;;;;;1.88;1.65;;;17.30;68.30;;;;;;6075269;23;20234;-88
2024/02/14 04:05:16;;;;;;;2.60;1.48;;;17.30;68.20;;;;;;6300352;22;20210;-89
2024/02/14 04:07:44;;;;;;;2.75;1.63;;;17.30;68.30;;;;;;6231151;22;20501;-87
2024/02/14 04:10:13;;;;;;;1.90;1.50;;;17.20;68.40;;;;;;6281677;22;20152;-88
2024/02/14 04:12:42;;;;;;;2.92;1.77;;;17.30;68.60;;;;;;6256138;22;20148;-88
2024/02/14 04:15:13;;;;;;;1.67;1.40;;;17.20;68.10;;;;;;6256269;22;20658;-88
2024/02/14 04:17:42;;;;;;;2.08;1.70;;;17.30;68.30;;;;;;6204908;22;20644;-88
2024/02/14 04:20:09;;;;;;;3.45;2.08;;;17.20;68.10;;;;;;6230030;22;20184;-89
2024/02/14 04:22:40;;;;;;;2.60;1.63;;;17.20;68.50;;;;;;6281577;22;20483;-88
2024/02/14 04:25:28;;;;;;;3.05;1.80;;;17.20;68.50;;;;;;6206743;22;20166;-88
2024/02/14 04:27:59;;;;;;;2.88;1.50;;;17.20;68.50;;;;;;6248311;23;20227;-89
2024/02/14 04:30:27;;;;;;;2.38;1.65;;;17.30;68.70;;;;;;6198278;23;20175;-87
2024/02/14 04:33:06;;;;;;;3.45;1.83;;;17.20;67.90;;;;;;6198274;23;20157;-88
2024/02/14 04:35:31;;;;;;;2.55;1.50;;;17.30;68.40;;;;;;6162783;23;20178;-88
2024/02/14 05:06:40;;;;;;;2.20;1.70;;;17.20;68.30;;;;;;6244936;22;1493082;-88
2024/02/14 05:09:14;;;;;;;2.97;1.70;;;17.20;68.40;;;;;;6235338;22;20152;-88
2024/02/14 05:11:47;;;;;;;3.67;1.50;;;17.20;68.10;;;;;;6237700;22;20147;-87
2024/02/14 05:14:13;;;;;;;2.40;1.80;;;17.20;68.20;;;;;;6260517;22;20152;-89
2024/02/14 05:16:50;;;;;;;2.92;1.90;;;17.20;67.70;;;;;;6235831;22;20189;-87
2024/02/14 06:05:54;;;;;;;3.25;1.77;;;17.10;67.70;;;;;;6309497;22;20694;-88
2024/02/14 06:08:30;;;;;;;2.70;1.50;;;17.20;67.70;;;;;;6232075;22;20435;-87
2024/02/14 06:10:59;;;;;;;2.60;1.70;;;17.10;68.00;;;;;;6233194;22;20193;-87
2024/02/14 06:13:35;;;;;;;3.47;1.77;;;17.20;67.80;;;;;;6191143;23;20228;-87
2024/02/14 06:16:08;;;;;;;2.00;1.67;;;17.10;67.80;;;;;;6156285;23;20153;-88
2024/02/14 06:18:35;;;;;;;3.72;1.80;;;17.10;67.50;;;;;;6067440;23;20620;-88
2024/02/14 06:21:06;;;;;;;2.70;1.67;;;17.30;66.90;;;;;;6044273;23;20161;-90
2024/02/14 06:24:39;;;;;;;3.75;2.03;;;17.30;66.70;;;;;;6044573;23;20156;-89
2024/02/14 06:26:33;;;;;;;2.22;1.67;;;17.40;66.50;;;;;;6017530;23;20473;-89
2024/02/14 06:36:39;;;;;;;3.25;1.83;;;17.30;66.80;;;;;;6309568;22;20203;-89
2024/02/14 06:39:31;;;;;;;3.42;1.95;;;17.30;66.90;;;;;;6222294;23;20173;-89
2024/02/14 06:42:23;;;;;;;2.67;1.60;;;17.30;66.90;;;;;;6193264;23;20154;-89
2024/02/14 06:44:49;;;;;;;3.75;1.77;;;17.40;66.90;;;;;;6118657;23;20150;-89
2024/02/14 06:47:29;;;;;;;1.95;1.73;;;17.40;66.70;;;;;;6140666;23;20146;-89
2024/02/14 06:50:28;;;;;;;;;;;;;;;;;;;;;
2024/02/14 06:59:44;;;;;;;;;;;;;;;;;;;;;
2024/02/14 07:28:43;;;;;;;4.07;1.80;;;17.80;63.80;;;;;;6125686;23;20278;-89
2024/02/14 07:31:16;;;;;;;2.88;2.03;;;17.70;64.70;;;;;;6137286;23;20147;-90
2024/02/14 09:01:55;;;;;;;7.35;2.05;;;18.00;62.70;;;;;;6308960;22;20611;-89
2024/02/14 09:08:26;;;;;;;5.65;1.95;;;18.10;62.30;;;;;;6312677;22;20135;-89
2024/02/14 09:11:23;;;;;;;7.05;2.35;;;18.10;62.40;;;;;;6193435;23;20166;-89
2024/02/14 09:14:06;;;;;;;5.28;2.25;;;18.10;62.70;;;;;;6128400;23;20222;-86
2024/02/14 09:16:58;;;;;;;3.78;2.33;;;18.00;62.30;;;;;;6159159;23;20217;-88
2024/02/14 09:20:24;;;;;;;6.13;2.30;;;18.10;62.70;;;;;;6160324;23;20206;-88
2024/02/14 09:23:13;;;;;;;4.63;2.33;;;18.10;62.90;;;;;;6099616;23;20152;-89
2024/02/14 10:55:18;;;;;;;2.58;1.80;;;18.10;63.80;;;;;;6367003;22;20175;-86
2024/02/14 10:58:49;;;;;;;2.90;1.92;;;18.10;64.00;;;;;;6279196;22;20240;-87
2024/02/14 11:02:40;;;;;;;;;;;;;;;;;;;;;
2024/02/14 11:08:25;;;;;;;2.80;1.88;;;18.00;63.70;;;;;;6101489;23;20194;-86
2024/02/14 12:28:26;;;;;;;3.92;2.10;;;18.10;63.40;;;;;;6351705;22;20210;-89
2024/02/14 12:31:07;;;;;;;2.90;1.65;;;18.10;63.70;;;;;;6141708;23;20166;-87
2024/02/14 12:33:45;;;;;;;3.30;1.80;;;18.10;63.40;;;;;;6164937;23;20177;-88
2024/02/14 12:36:18;;;;;;;3.92;1.90;;;18.10;63.10;;;;;;6115697;23;20240;-87
2024/02/14 12:38:45;;;;;;;3.65;1.90;;;18.10;62.90;;;;;;6138273;23;20601;-89
2024/02/14 12:41:14;;;;;;;2.28;1.70;;;18.20;63.00;;;;;;6136842;23;20178;-88
2024/02/14 12:43:45;;;;;;;4.80;1.90;;;18.20;63.20;;;;;;6104179;23;20203;-88
2024/02/14 12:46:11;;;;;;;2.28;1.77;;;18.20;62.80;;;;;;6130124;23;20175;-86
2024/02/14 12:52:27;;;;;;;5.95;2.20;;;18.20;63.30;;;;;;6028537;23;20266;-87
2024/02/14 12:55:25;;;;;;;5.30;2.20;;;18.10;63.40;;;;;;6014971;23;20298;-88
2024/02/14 12:58:17;;;;;;;8.30;2.05;;;18.10;62.90;;;;;;6015372;23;20233;-86
2024/02/14 13:01:34;;;;;;;8.82;2.33;;;18.10;63.40;;;;;;5973943;23;20253;-88
2024/02/14 13:59:51;;;;;;;3.83;1.67;;;18.10;63.80;;;;;;6313164;22;20206;-87
2024/02/14 14:02:19;;;;;;;4.50;1.67;;;18.10;64.20;;;;;;6230208;22;20230;-87
2024/02/14 14:04:59;;;;;;;3.38;1.70;;;18.10;63.50;;;;;;6255969;22;20503;-89
2024/02/14 14:07:33;;;;;;;5.93;2.03;;;18.10;63.40;;;;;;6205545;22;20209;-89
2024/02/14 14:10:27;;;;;;;3.15;1.70;;;18.10;63.70;;;;;;6193152;23;20177;-89
2024/02/14 14:13:10;;;;;;;4.15;1.73;;;18.20;63.50;;;;;;6163193;23;20606;-89
2024/02/14 14:15:38;;;;;;;3.03;1.73;;;18.20;63.90;;;;;;6084108;23;20158;-88
2024/02/14 14:18:20;;;;;;;3.25;1.65;;;18.20;63.40;;;;;;6103651;23;20505;-86
2024/02/14 14:20:49;;;;;;;2.08;1.60;;;18.20;63.40;;;;;;6060593;23;20188;-86
2024/02/14 14:23:18;;;;;;;2.50;1.77;;;18.20;63.70;;;;;;6059223;23;20498;-87
2024/02/14 14:26:00;;;;;;;2.33;1.60;;;18.10;64.20;;;;;;6053669;23;20148;-87
2024/02/14 14:28:54;;;;;;;4.22;1.75;;;18.10;64.00;;;;;;6011324;23;20820;-86
2024/02/14 18:46:53;;;;;;;5.10;1.30;;;18.70;66.10;;;;;;6313189;22;20208;-85
2024/02/14 18:49:19;;;;;;;8.90;1.45;;;18.80;64.60;;;;;;6265379;22;20160;-87
2024/02/14 18:51:46;;;;;;;7.13;1.73;;;18.80;66.00;;;;;;6241969;22;20148;-84
2024/02/14 18:54:12;;;;;;;3.60;1.30;;;18.80;67.10;;;;;;6239131;22;20225;-88
